createdAt,value
2017-05-31T00:00:10.012Z,17.26
2017-05-31T00:02:38.866Z,18.80
2017-05-31T00:05:07.731Z,19.22
2017-05-31T00:07:36.642Z,18.66
2017-05-31T00:10:05.534Z,19.46
2017-05-31T00:12:34.398Z,19.98
2017-05-31T00:15:03.295Z,19.14
2017-05-31T00:17:33.438Z,20.74
2017-05-31T00:20:02.336Z,19.72
2017-05-31T00:22:31.200Z,21.26
2017-05-31T00:24:59.298Z,21.98
2017-05-31T00:27:28.226Z,24.20
2017-05-31T00:29:57.076Z,22.84
2017-05-31T00:32:25.200Z,24.18
2017-05-31T00:34:53.315Z,23.44
2017-05-31T00:37:24.020Z,23.94
2017-05-31T00:39:53.302Z,21.50
2017-05-31T00:42:22.188Z,22.84
2017-05-31T00:44:51.034Z,20.80
2017-05-31T00:47:19.930Z,23.92
2017-05-31T00:49:48.836Z,21.46
2017-05-31T00:52:17.745Z,20.88
2017-05-31T00:54:46.610Z,18.66
2017-05-31T00:57:15.820Z,19.46
2017-05-31T00:59:45.351Z,19.88
2017-05-31T01:02:14.251Z,16.28
2017-05-31T01:04:43.137Z,17.46
2017-05-31T01:07:11.995Z,21.56
2017-05-31T01:09:40.875Z,16.70
2017-05-31T01:12:08.962Z,17.96
2017-05-31T01:14:37.813Z,18.76
2017-05-31T01:17:06.697Z,15.16
2017-05-31T01:19:35.592Z,17.26
2017-05-31T01:22:05.020Z,18.74
2017-05-31T01:24:34.723Z,19.32
2017-05-31T01:27:03.668Z,18.60
2017-05-31T01:29:32.547Z,19.44
2017-05-31T01:32:01.460Z,16.58
2017-05-31T01:34:30.324Z,20.14
2017-05-31T01:37:00.480Z,18.82
2017-05-31T01:39:29.365Z,18.98
2017-05-31T01:41:58.191Z,18.10
2017-05-31T01:44:26.320Z,17.58
2017-05-31T01:46:55.445Z,17.18
2017-05-31T01:49:24.626Z,18.38
2017-05-31T01:51:53.502Z,18.90
2017-05-31T01:54:22.385Z,16.14
2017-05-31T01:56:52.423Z,20.40
2017-05-31T01:59:21.272Z,18.24
2017-05-31T02:01:50.402Z,18.66
2017-05-31T02:04:19.278Z,18.14
2017-05-31T02:06:48.137Z,18.84
2017-05-31T02:09:17.076Z,17.84
2017-05-31T02:11:45.195Z,16.62
2017-05-31T02:14:14.103Z,18.66
2017-05-31T02:16:42.993Z,25.76
2017-05-31T02:19:11.888Z,17.04
2017-05-31T02:21:40.755Z,17.72
2017-05-31T02:24:10.437Z,16.60
2017-05-31T02:26:39.343Z,16.68
2017-05-31T02:29:08.267Z,17.72
2017-05-31T02:31:39.206Z,19.68
2017-05-31T02:34:08.113Z,19.02
2017-05-31T02:36:36.981Z,16.52
2017-05-31T02:39:05.862Z,17.32
2017-05-31T02:41:34.737Z,21.86
2017-05-31T02:44:03.648Z,22.60
2017-05-31T02:46:32.521Z,24.40
2017-05-31T02:49:00.627Z,29.02
2017-05-31T02:51:30.643Z,20.72
2017-05-31T02:53:59.499Z,26.18
2017-05-31T02:56:28.414Z,22.60
2017-05-31T02:58:57.283Z,26.88
2017-05-31T03:01:26.145Z,21.80
2017-05-31T03:03:54.268Z,21.34
2017-05-31T03:06:23.151Z,22.24
2017-05-31T03:08:51.263Z,20.16
2017-05-31T03:11:20.123Z,23.34
2017-05-31T03:13:49.035Z,23.20
2017-05-31T03:16:17.910Z,20.58
2017-05-31T03:18:47.665Z,22.38
2017-05-31T03:21:16.544Z,24.48
2017-05-31T03:23:45.411Z,24.44
2017-05-31T03:26:14.652Z,20.44
2017-05-31T03:28:43.509Z,25.16
2017-05-31T03:31:12.378Z,24.78
2017-05-31T03:33:41.262Z,29.22
2017-05-31T03:36:10.146Z,24.18
2017-05-31T03:38:39.012Z,24.58
2017-05-31T03:41:07.863Z,26.94
2017-05-31T03:43:36.767Z,25.78
2017-05-31T03:46:05.619Z,29.28
2017-05-31T03:48:34.486Z,24.34
2017-05-31T03:51:03.577Z,25.12
2017-05-31T03:53:32.463Z,22.48
2017-05-31T03:56:01.357Z,23.24
2017-05-31T03:58:30.263Z,24.82
2017-05-31T04:00:59.135Z,24.52
2017-05-31T04:03:28.038Z,23.10
2017-05-31T04:05:56.925Z,21.54
2017-05-31T04:08:25.081Z,23.38
2017-05-31T04:10:53.950Z,21.74
2017-05-31T04:13:22.071Z,21.54
2017-05-31T04:15:51.194Z,24.42
2017-05-31T04:18:20.877Z,24.88
2017-05-31T04:20:49.770Z,24.84
2017-05-31T04:23:18.639Z,24.12
2017-05-31T04:25:47.533Z,18.70
2017-05-31T04:28:31.614Z,26.30
2017-05-31T04:31:00.520Z,23.36
2017-05-31T04:33:28.639Z,21.32
2017-05-31T04:35:57.859Z,24.12
2017-05-31T04:38:26.746Z,28.04
2017-05-31T04:40:55.641Z,23.06
2017-05-31T04:43:24.557Z,22.62
2017-05-31T04:45:53.420Z,20.88
2017-05-31T04:48:22.330Z,25.22
2017-05-31T04:50:50.432Z,24.30
2017-05-31T04:53:19.344Z,26.38
2017-05-31T04:55:48.219Z,25.58
2017-05-31T04:58:17.782Z,21.54
2017-05-31T05:00:48.959Z,23.12
2017-05-31T05:03:17.848Z,25.58
2017-05-31T05:05:46.732Z,21.10
2017-05-31T05:08:17.668Z,18.96
2017-05-31T05:10:47.282Z,21.54
2017-05-31T05:13:16.153Z,16.20
2017-05-31T05:15:45.035Z,13.14
2017-05-31T05:18:13.168Z,11.22
2017-05-31T05:20:42.035Z,12.56
2017-05-31T05:23:10.180Z,9.16
2017-05-31T05:25:39.059Z,9.38
2017-05-31T05:28:08.796Z,6.72
2017-05-31T05:30:37.671Z,5.16
2017-05-31T05:33:06.542Z,4.38
2017-05-31T05:35:35.432Z,5.20
2017-05-31T05:38:03.521Z,3.66
2017-05-31T05:40:32.415Z,5.82
2017-05-31T05:43:01.290Z,5.16
2017-05-31T05:45:30.192Z,6.72
2017-05-31T05:48:00.002Z,4.88
2017-05-31T05:50:28.893Z,6.42
2017-05-31T05:52:58.786Z,6.30
2017-05-31T05:55:27.640Z,5.12
2017-05-31T05:57:57.620Z,5.20
2017-05-31T06:00:27.432Z,5.64
2017-05-31T06:02:56.282Z,5.38
2017-05-31T06:05:25.189Z,5.82
2017-05-31T06:07:54.039Z,6.16
2017-05-31T06:10:22.993Z,3.90
2017-05-31T06:12:51.940Z,5.44
2017-05-31T06:15:20.812Z,4.86
2017-05-31T06:17:49.679Z,5.06
2017-05-31T06:20:19.470Z,2.88
2017-05-31T06:22:48.458Z,3.72
2017-05-31T06:25:17.361Z,2.74
2017-05-31T06:27:46.237Z,6.54
2017-05-31T06:30:14.363Z,4.78
2017-05-31T06:32:42.500Z,3.18
2017-05-31T06:35:11.499Z,2.28
2017-05-31T06:37:40.386Z,2.54
2017-05-31T06:40:09.265Z,3.90
2017-05-31T06:42:38.115Z,2.70
2017-05-31T06:45:06.211Z,4.26
2017-05-31T06:47:35.096Z,2.86
2017-05-31T06:50:04.021Z,4.36
2017-05-31T06:52:32.951Z,4.62
2017-05-31T06:55:01.853Z,4.66
2017-05-31T06:57:30.801Z,2.16
2017-05-31T06:59:59.694Z,3.24
2017-05-31T07:02:30.553Z,4.12
2017-05-31T07:04:59.459Z,5.94
2017-05-31T07:07:28.318Z,4.68
2017-05-31T07:09:57.211Z,2.24
2017-05-31T07:12:26.114Z,2.18
2017-05-31T07:14:54.986Z,2.18
2017-05-31T07:17:23.875Z,4.48
2017-05-31T07:19:52.759Z,3.24
2017-05-31T07:22:20.879Z,4.22
2017-05-31T07:24:54.917Z,3.22
2017-05-31T07:27:23.787Z,4.48
2017-05-31T07:29:52.729Z,2.94
2017-05-31T07:32:21.637Z,3.80
2017-05-31T07:34:50.495Z,3.36
2017-05-31T07:37:23.072Z,6.30
2017-05-31T07:39:51.966Z,2.84
2017-05-31T07:42:20.894Z,2.88
2017-05-31T07:44:49.765Z,3.00
2017-05-31T07:47:18.668Z,1.98
2017-05-31T07:49:47.570Z,2.26
2017-05-31T07:52:16.494Z,3.44
2017-05-31T07:54:45.373Z,3.74
2017-05-31T07:57:14.278Z,3.90
2017-05-31T07:59:42.432Z,4.08
2017-05-31T08:02:11.313Z,3.24
2017-05-31T08:04:40.230Z,2.84
2017-05-31T08:07:09.198Z,1.28
2017-05-31T08:09:38.248Z,1.58
2017-05-31T08:12:07.138Z,3.08
2017-05-31T08:14:35.265Z,1.80
2017-05-31T08:17:08.289Z,1.68
2017-05-31T08:19:37.243Z,1.68
2017-05-31T08:22:06.090Z,4.18
2017-05-31T08:24:35.035Z,5.82
2017-05-31T08:27:17.325Z,2.12
2017-05-31T08:29:46.167Z,4.26
2017-05-31T08:32:15.024Z,3.60
2017-05-31T08:34:43.926Z,2.32
2017-05-31T08:37:12.817Z,4.16
2017-05-31T08:39:40.908Z,1.82
2017-05-31T08:42:09.004Z,2.00
2017-05-31T08:44:38.149Z,4.30
2017-05-31T08:47:07.069Z,3.86
2017-05-31T08:49:36.141Z,2.42
2017-05-31T08:52:04.996Z,5.62
2017-05-31T08:54:33.887Z,1.24
2017-05-31T08:57:02.754Z,2.44
2017-05-31T08:59:30.866Z,1.84
2017-05-31T09:01:58.971Z,1.00
2017-05-31T09:04:27.611Z,1.42
2017-05-31T09:06:56.495Z,2.02
2017-05-31T09:09:24.799Z,2.54
2017-05-31T09:11:53.638Z,1.86
2017-05-31T09:14:22.583Z,3.20
2017-05-31T09:16:51.460Z,3.24
2017-05-31T09:19:20.399Z,2.86
2017-05-31T09:21:49.256Z,2.72
2017-05-31T09:24:19.162Z,1.60
2017-05-31T09:26:48.292Z,3.62
2017-05-31T09:29:17.162Z,1.56
2017-05-31T09:31:45.274Z,2.94
2017-05-31T09:34:13.383Z,1.92
2017-05-31T09:36:42.330Z,1.06
2017-05-31T09:39:11.207Z,3.74
2017-05-31T09:41:40.125Z,1.90
2017-05-31T09:44:08.268Z,4.10
2017-05-31T09:46:37.996Z,2.40
2017-05-31T09:49:06.933Z,3.54
2017-05-31T09:51:35.928Z,2.48
2017-05-31T09:54:04.048Z,5.46
2017-05-31T09:56:32.920Z,2.98
2017-05-31T09:59:01.863Z,4.74
2017-05-31T10:01:30.792Z,3.80
2017-05-31T10:03:59.717Z,3.36
2017-05-31T10:06:31.570Z,2.70
2017-05-31T10:09:00.448Z,2.86
2017-05-31T10:11:29.323Z,6.28
2017-05-31T10:13:58.600Z,5.86
2017-05-31T10:16:27.540Z,3.02
2017-05-31T10:18:56.436Z,5.66
2017-05-31T10:21:24.595Z,13.48
2017-05-31T10:23:53.700Z,5.84
2017-05-31T10:26:22.569Z,6.50
2017-05-31T10:28:50.686Z,5.18
2017-05-31T10:31:19.678Z,6.22
2017-05-31T10:33:49.487Z,4.44
2017-05-31T10:36:18.413Z,3.98
2017-05-31T10:38:47.298Z,4.10
2017-05-31T10:41:16.191Z,6.58
2017-05-31T10:43:44.278Z,4.42
2017-05-31T10:46:13.174Z,6.66
2017-05-31T10:48:41.273Z,4.48
2017-05-31T10:51:12.268Z,8.24
2017-05-31T10:53:41.278Z,5.72
2017-05-31T10:56:10.245Z,4.42
2017-05-31T10:58:39.986Z,7.94
2017-05-31T11:01:08.238Z,4.34
2017-05-31T11:03:37.140Z,5.44
2017-05-31T11:06:06.167Z,3.76
2017-05-31T11:08:35.151Z,5.42
2017-05-31T11:11:10.526Z,5.88
2017-05-31T11:13:39.400Z,5.50
2017-05-31T11:16:08.268Z,7.20
2017-05-31T11:18:37.579Z,5.78
2017-05-31T11:21:06.465Z,2.92
2017-05-31T11:23:35.342Z,7.52
2017-05-31T11:26:04.247Z,6.04
2017-05-31T11:28:33.141Z,9.44
2017-05-31T11:31:03.979Z,4.92
2017-05-31T11:33:32.919Z,7.36
2017-05-31T11:36:01.862Z,6.22
2017-05-31T11:38:30.735Z,6.96
2017-05-31T11:40:59.727Z,5.30
2017-05-31T11:43:28.952Z,4.54
2017-05-31T11:45:57.796Z,9.66
2017-05-31T11:48:25.958Z,6.84
2017-05-31T11:50:54.832Z,6.94
2017-05-31T11:53:24.273Z,4.34
2017-05-31T11:55:53.162Z,6.58
2017-05-31T11:58:23.983Z,8.28
2017-05-31T12:00:52.925Z,6.62
2017-05-31T12:03:21.882Z,5.80
2017-05-31T12:05:50.853Z,5.12
2017-05-31T12:08:18.969Z,6.46
2017-05-31T12:10:47.911Z,7.94
2017-05-31T12:13:16.782Z,5.78
2017-05-31T12:15:45.706Z,10.82
2017-05-31T12:18:14.558Z,5.70
2017-05-31T12:20:42.826Z,10.70
2017-05-31T12:23:11.757Z,7.72
2017-05-31T12:25:40.716Z,5.82
2017-05-31T12:28:09.686Z,4.50
2017-05-31T12:30:37.855Z,4.86
2017-05-31T12:33:06.694Z,3.04
2017-05-31T12:35:35.551Z,6.60
2017-05-31T12:38:04.445Z,9.00
2017-05-31T12:40:33.357Z,6.00
2017-05-31T12:43:02.240Z,6.14
2017-05-31T12:45:31.304Z,6.10
2017-05-31T12:48:00.178Z,10.14
2017-05-31T12:50:28.281Z,7.60
2017-05-31T12:52:57.137Z,6.26
2017-05-31T12:55:26.033Z,3.58
2017-05-31T12:57:55.507Z,9.38
2017-05-31T13:00:24.412Z,5.82
2017-05-31T13:02:53.267Z,5.84
2017-05-31T13:05:22.230Z,5.88
2017-05-31T13:07:51.119Z,4.10
2017-05-31T13:10:20.045Z,5.88
2017-05-31T13:12:48.357Z,4.86
2017-05-31T13:15:17.341Z,8.20
2017-05-31T13:17:46.389Z,4.68
2017-05-31T13:20:15.424Z,7.62
2017-05-31T13:22:43.543Z,9.30
2017-05-31T13:25:12.486Z,4.20
2017-05-31T13:27:41.415Z,5.70
2017-05-31T13:30:10.343Z,6.16
2017-05-31T13:32:38.487Z,10.72
2017-05-31T13:35:07.328Z,5.86
2017-05-31T13:37:36.232Z,4.74
2017-05-31T13:40:05.106Z,5.20
2017-05-31T13:42:34.538Z,4.68
2017-05-31T13:45:03.515Z,7.12
2017-05-31T13:47:32.393Z,4.08
2017-05-31T13:50:01.264Z,5.72
2017-05-31T13:52:30.164Z,7.44
2017-05-31T13:55:08.459Z,4.16
2017-05-31T13:57:37.899Z,4.48
2017-05-31T14:00:06.028Z,5.20
2017-05-31T14:02:35.079Z,3.30
2017-05-31T14:05:04.168Z,8.82
2017-05-31T14:07:33.040Z,7.22
2017-05-31T14:10:01.943Z,6.48
2017-05-31T14:12:30.972Z,6.04
2017-05-31T14:14:59.938Z,5.32
2017-05-31T14:17:28.854Z,6.88
2017-05-31T14:19:57.745Z,5.14
2017-05-31T14:22:26.609Z,6.78
2017-05-31T14:24:55.592Z,7.50
2017-05-31T14:27:24.539Z,7.42
2017-05-31T14:29:53.536Z,3.18
2017-05-31T14:32:22.465Z,4.68
2017-05-31T14:34:51.343Z,4.30
2017-05-31T14:37:20.237Z,4.98
2017-05-31T14:39:49.260Z,8.46
2017-05-31T14:42:17.515Z,5.78
2017-05-31T14:44:46.548Z,5.50
2017-05-31T14:47:15.568Z,8.22
2017-05-31T14:49:44.467Z,6.26
2017-05-31T14:52:13.338Z,6.38
2017-05-31T14:54:43.428Z,7.92
2017-05-31T14:57:15.539Z,5.02
2017-05-31T14:59:44.507Z,6.40
2017-05-31T15:02:13.402Z,8.62
2017-05-31T15:04:41.632Z,10.88
2017-05-31T15:07:10.598Z,8.00
2017-05-31T15:09:39.571Z,8.20
2017-05-31T15:12:08.480Z,7.64
2017-05-31T15:14:37.386Z,4.94
2017-05-31T15:17:06.277Z,6.04
2017-05-31T15:19:37.308Z,4.82
2017-05-31T15:22:06.183Z,7.50
2017-05-31T15:24:35.049Z,7.30
2017-05-31T15:29:37.538Z,7.40
2017-05-31T15:32:06.414Z,5.88
2017-05-31T15:34:34.524Z,8.04
2017-05-31T15:37:03.403Z,7.92
2017-05-31T15:39:32.320Z,4.74
2017-05-31T15:42:01.222Z,9.00
2017-05-31T15:44:35.955Z,11.52
2017-05-31T15:47:05.316Z,8.48
2017-05-31T15:49:34.180Z,6.96
2017-05-31T15:52:05.167Z,4.94
2017-05-31T15:54:34.050Z,4.78
2017-05-31T15:57:05.031Z,5.76
2017-05-31T15:59:33.905Z,7.92
2017-05-31T16:02:01.999Z,8.98
2017-05-31T16:04:32.004Z,6.54
2017-05-31T16:07:00.931Z,8.02
2017-05-31T16:09:30.683Z,5.58
2017-05-31T16:14:43.560Z,6.00
2017-05-31T16:17:12.487Z,8.90
2017-05-31T16:19:41.364Z,4.64
2017-05-31T16:22:09.555Z,5.18
2017-05-31T16:24:43.714Z,6.60
2017-05-31T16:27:12.715Z,10.04
2017-05-31T16:29:42.372Z,5.88
2017-05-31T16:32:12.124Z,6.06
2017-05-31T16:34:41.250Z,5.68
2017-05-31T16:37:10.879Z,6.96
2017-05-31T16:39:39.018Z,5.54
2017-05-31T16:42:07.832Z,6.94
2017-05-31T16:44:37.664Z,12.78
2017-05-31T16:47:07.597Z,7.60
2017-05-31T16:49:38.310Z,8.36
2017-05-31T16:52:08.146Z,7.08
2017-05-31T16:54:37.088Z,6.10
2017-05-31T16:57:05.983Z,5.64
2017-05-31T16:59:34.851Z,5.20
2017-05-31T17:02:03.719Z,8.38
2017-05-31T17:04:32.589Z,6.82
2017-05-31T17:07:01.481Z,10.08
2017-05-31T17:09:33.298Z,4.44
2017-05-31T17:12:02.271Z,6.10
2017-05-31T17:14:32.708Z,5.70
2017-05-31T17:17:16.398Z,8.20
2017-05-31T17:19:46.115Z,5.70
2017-05-31T17:22:25.011Z,8.82
2017-05-31T17:24:53.915Z,4.32
2017-05-31T17:27:30.858Z,4.96
2017-05-31T17:30:00.499Z,3.78
2017-05-31T17:35:06.226Z,3.42
2017-05-31T17:37:35.097Z,5.42
2017-05-31T17:40:03.955Z,8.86
2017-05-31T17:42:33.793Z,4.12
2017-05-31T17:45:01.893Z,6.48
2017-05-31T17:47:30.778Z,4.44
2017-05-31T17:49:59.708Z,5.46
2017-05-31T17:52:28.559Z,8.88
2017-05-31T17:54:57.470Z,6.54
2017-05-31T17:57:26.407Z,5.16
2017-05-31T17:59:55.255Z,5.00
2017-05-31T18:02:24.156Z,6.16
2017-05-31T18:04:52.279Z,5.80
2017-05-31T18:07:21.162Z,5.40
2017-05-31T18:09:49.314Z,7.42
2017-05-31T18:12:19.129Z,7.56
2017-05-31T18:14:47.963Z,6.90
2017-05-31T18:17:16.812Z,4.98
2017-05-31T18:19:45.700Z,6.36
2017-05-31T18:22:14.592Z,8.88
2017-05-31T18:24:44.806Z,7.48
2017-05-31T18:27:13.731Z,4.94
2017-05-31T18:29:42.693Z,5.54
2017-05-31T18:32:11.549Z,7.14
2017-05-31T18:34:40.439Z,12.06
2017-05-31T18:37:13.080Z,7.32
2017-05-31T18:39:41.195Z,7.76
2017-05-31T18:42:11.171Z,11.24
2017-05-31T18:44:39.266Z,9.42
2017-05-31T18:47:08.905Z,7.40
2017-05-31T18:49:37.778Z,5.98
2017-05-31T18:52:07.233Z,6.12
2017-05-31T18:54:36.133Z,4.24
2017-05-31T18:57:05.906Z,8.58
2017-05-31T18:59:34.988Z,5.26
2017-05-31T19:02:03.896Z,6.96
2017-05-31T19:04:35.123Z,10.96
2017-05-31T19:07:03.978Z,11.78
2017-05-31T19:09:32.830Z,7.02
2017-05-31T19:12:01.675Z,6.40
2017-05-31T19:14:30.623Z,6.10
2017-05-31T19:16:59.473Z,7.26
2017-05-31T19:19:28.356Z,7.62
2017-05-31T19:22:03.000Z,6.00
2017-05-31T19:24:31.900Z,8.16
2017-05-31T19:27:00.767Z,8.70
2017-05-31T19:29:29.654Z,7.20
2017-05-31T19:31:59.555Z,6.74
2017-05-31T19:34:27.642Z,7.62
2017-05-31T19:36:56.623Z,8.60
2017-05-31T19:39:25.465Z,4.86
2017-05-31T19:41:58.026Z,7.88
2017-05-31T19:44:26.920Z,13.06
2017-05-31T19:46:55.883Z,7.24
2017-05-31T19:49:25.723Z,7.88
2017-05-31T19:51:54.612Z,11.88
2017-05-31T19:54:24.262Z,9.80
2017-05-31T19:56:53.831Z,6.76
2017-05-31T19:59:22.774Z,6.78
2017-05-31T20:01:51.637Z,7.32
2017-05-31T20:04:20.518Z,7.66
2017-05-31T20:06:50.230Z,12.60
2017-05-31T20:09:20.872Z,8.78
2017-05-31T20:11:50.727Z,9.06
2017-05-31T20:14:19.625Z,6.60
2017-05-31T20:16:49.309Z,8.00
2017-05-31T20:19:19.092Z,9.16
2017-05-31T20:21:50.162Z,7.04
2017-05-31T20:24:19.536Z,7.60
2017-05-31T20:26:52.052Z,9.00
2017-05-31T20:29:23.953Z,8.38
2017-05-31T20:31:52.802Z,10.36
2017-05-31T20:34:22.403Z,12.06
2017-05-31T20:36:52.991Z,9.58
2017-05-31T20:39:23.066Z,8.94
2017-05-31T20:44:32.074Z,8.12
2017-05-31T20:47:01.932Z,6.98
2017-05-31T20:49:33.375Z,4.94
2017-05-31T20:52:05.242Z,14.86
2017-05-31T20:54:34.230Z,17.32
2017-05-31T20:57:09.008Z,13.52
2017-05-31T20:59:39.290Z,13.28
2017-05-31T21:02:07.382Z,9.92
2017-05-31T21:04:43.887Z,10.96
2017-05-31T21:07:13.678Z,13.82
2017-05-31T21:09:47.852Z,7.66
2017-05-31T21:12:19.277Z,8.60
2017-05-31T21:14:48.225Z,20.72
2017-05-31T21:17:18.663Z,10.76
2017-05-31T21:19:47.494Z,11.40
2017-05-31T21:22:16.440Z,8.16
2017-05-31T21:24:46.065Z,10.08
2017-05-31T21:27:15.017Z,13.18
2017-05-31T21:29:43.917Z,9.06
2017-05-31T21:32:13.073Z,12.20
2017-05-31T21:34:42.139Z,10.50
2017-05-31T21:37:12.248Z,9.02
2017-05-31T21:39:41.131Z,8.00
2017-05-31T21:42:10.878Z,10.00
2017-05-31T21:44:39.769Z,7.36
2017-05-31T21:47:08.651Z,12.88
2017-05-31T21:49:37.624Z,10.66
2017-05-31T21:52:06.536Z,12.06
2017-05-31T21:54:35.529Z,10.68
2017-05-31T21:57:05.188Z,10.90
2017-05-31T21:59:35.234Z,9.22
2017-05-31T22:02:04.073Z,14.88
2017-05-31T22:04:33.743Z,11.64
2017-05-31T22:07:02.621Z,14.80
2017-05-31T22:09:30.767Z,10.32
2017-05-31T22:11:58.904Z,13.40
2017-05-31T22:14:27.764Z,10.74
2017-05-31T22:16:56.641Z,6.90
2017-05-31T22:19:24.766Z,10.76
2017-05-31T22:21:53.649Z,10.76
2017-05-31T22:24:21.775Z,10.56
2017-05-31T22:26:50.670Z,10.22
2017-05-31T22:29:19.586Z,12.86
2017-05-31T22:31:49.682Z,8.58
2017-05-31T22:34:18.565Z,8.10
2017-05-31T22:36:47.422Z,11.86
2017-05-31T22:39:16.319Z,10.86
2017-05-31T22:41:46.334Z,10.82
2017-05-31T22:44:16.127Z,14.86
2017-05-31T22:46:44.998Z,13.94
2017-05-31T22:49:13.933Z,7.00
2017-05-31T22:51:42.766Z,7.12
2017-05-31T22:54:11.615Z,12.20
2017-05-31T22:56:40.474Z,6.90
2017-05-31T22:59:09.375Z,8.44
2017-05-31T23:01:38.275Z,8.92
2017-05-31T23:04:09.007Z,7.42
2017-05-31T23:06:38.037Z,11.36
2017-05-31T23:09:06.953Z,8.04
2017-05-31T23:11:35.040Z,10.04
2017-05-31T23:14:03.403Z,10.30
2017-05-31T23:16:32.347Z,11.46
2017-05-31T23:19:00.445Z,16.32
2017-05-31T23:21:29.308Z,13.30
2017-05-31T23:23:58.191Z,10.74
2017-05-31T23:26:28.304Z,13.76
2017-05-31T23:28:57.172Z,8.38
2017-05-31T23:31:26.063Z,11.36
2017-05-31T23:33:54.954Z,14.92
2017-05-31T23:36:23.830Z,10.06
2017-05-31T23:38:52.745Z,9.50
2017-05-31T23:41:22.834Z,9.56
2017-05-31T23:43:52.874Z,12.52
2017-05-31T23:46:21.743Z,9.62
2017-05-31T23:48:50.882Z,10.60
2017-05-31T23:51:19.748Z,16.12
2017-05-31T23:53:48.666Z,10.98
2017-05-31T23:56:17.534Z,10.40
2017-05-31T23:58:45.644Z,10.12
